sensor_id;sensor_type;location;lat;lon;timestamp;pressure;altitude;pressure_sealevel;temperature;humidity
70546;BME280;58098;51.680;5.134;2023-04-29T00:01:55;101551.97;;;9.23;100.00
70546;BME280;58098;51.680;5.134;2023-04-29T00:04:23;101549.75;;;9.17;100.00
70546;BME280;58098;51.680;5.134;2023-04-29T00:06:49;101541.88;;;9.04;100.00
70546;BME280;58098;51.680;5.134;2023-04-29T00:09:14;101554.03;;;9.18;100.00
70546;BME280;58098;51.680;5.134;2023-04-29T00:11:40;101548.25;;;9.13;100.00
70546;BME280;58098;51.680;5.134;2023-04-29T00:14:05;101555.72;;;9.05;100.00
70546;BME280;58098;51.680;5.134;2023-04-29T00:16:30;101557.19;;;9.09;100.00
70546;BME280;58098;51.680;5.134;2023-04-29T00:18:56;101529.88;;;9.02;100.00
70546;BME280;58098;51.680;5.134;2023-04-29T00:21:21;101542.22;;;8.98;100.00
70546;BME280;58098;51.680;5.134;2023-04-29T00:23:46;101554.78;;;9.06;100.00
70546;BME280;58098;51.680;5.134;2023-04-29T00:26:12;101554.78;;;9.06;100.00
70546;BME280;58098;51.680;5.134;2023-04-29T00:28:38;101541.69;;;9.07;100.00
70546;BME280;58098;51.680;5.134;2023-04-29T00:31:03;101558.50;;;9.02;100.00
70546;BME280;58098;51.680;5.134;2023-04-29T00:33:28;101548.19;;;9.00;100.00
70546;BME280;58098;51.680;5.134;2023-04-29T00:35:54;101563.72;;;9.02;100.00
70546;BME280;58098;51.680;5.134;2023-04-29T00:38:19;101545.94;;;8.94;100.00
70546;BME280;58098;51.680;5.134;2023-04-29T00:40:45;101559.16;;;8.91;100.00
70546;BME280;58098;51.680;5.134;2023-04-29T00:43:11;101556.47;;;8.93;100.00
70546;BME280;58098;51.680;5.134;2023-04-29T00:45:36;101546.41;;;8.87;100.00
70546;BME280;58098;51.680;5.134;2023-04-29T00:48:01;101550.13;;;8.97;100.00
70546;BME280;58098;51.680;5.134;2023-04-29T00:50:27;101565.56;;;9.00;100.00
70546;BME280;58098;51.680;5.134;2023-04-29T00:52:52;101577.63;;;9.01;100.00
70546;BME280;58098;51.680;5.134;2023-04-29T00:55:18;101565.09;;;8.93;100.00
70546;BME280;58098;51.680;5.134;2023-04-29T00:57:44;101583.22;;;8.95;100.00
70546;BME280;58098;51.680;5.134;2023-04-29T01:00:12;101568.25;;;8.98;100.00
70546;BME280;58098;51.680;5.134;2023-04-29T01:02:39;101560.91;;;8.91;100.00
70546;BME280;58098;51.680;5.134;2023-04-29T01:05:04;101569.03;;;9.00;100.00
70546;BME280;58098;51.680;5.134;2023-04-29T01:07:38;101566.09;;;8.91;100.00
70546;BME280;58098;51.680;5.134;2023-04-29T01:10:15;101575.44;;;8.95;100.00
70546;BME280;58098;51.680;5.134;2023-04-29T01:12:50;101568.91;;;8.88;100.00
70546;BME280;58098;51.680;5.134;2023-04-29T01:18:03;101583.06;;;8.98;100.00
70546;BME280;58098;51.680;5.134;2023-04-29T01:20:30;101584.88;;;8.96;100.00
70546;BME280;58098;51.680;5.134;2023-04-29T01:22:56;101569.84;;;8.87;100.00
70546;BME280;58098;51.680;5.134;2023-04-29T01:25:21;101576.34;;;8.94;100.00
70546;BME280;58098;51.680;5.134;2023-04-29T01:38:31;101580.53;;;8.96;100.00
70546;BME280;58098;51.680;5.134;2023-04-29T01:41:33;101600.16;;;9.02;100.00
70546;BME280;58098;51.680;5.134;2023-04-29T01:44:01;101593.66;;;8.95;100.00
70546;BME280;58098;51.680;5.134;2023-04-29T01:46:29;101597.16;;;8.94;100.00
70546;BME280;58098;51.680;5.134;2023-04-29T01:48:55;101609.66;;;9.03;100.00
70546;BME280;58098;51.680;5.134;2023-04-29T01:51:20;101589.47;;;8.92;100.00
70546;BME280;58098;51.680;5.134;2023-04-29T01:53:46;101605.53;;;8.99;100.00
70546;BME280;58098;51.680;5.134;2023-04-29T01:56:11;101593.72;;;8.93;100.00
70546;BME280;58098;51.680;5.134;2023-04-29T01:58:36;101603.31;;;8.93;100.00
70546;BME280;58098;51.680;5.134;2023-04-29T02:01:01;101608.25;;;8.97;100.00
70546;BME280;58098;51.680;5.134;2023-04-29T02:03:27;101612.50;;;8.98;100.00
70546;BME280;58098;51.680;5.134;2023-04-29T02:05:52;101601.28;;;8.98;100.00
70546;BME280;58098;51.680;5.134;2023-04-29T02:08:18;101592.13;;;8.91;100.00
70546;BME280;58098;51.680;5.134;2023-04-29T02:10:56;101615.31;;;8.95;100.00
70546;BME280;58098;51.680;5.134;2023-04-29T02:13:22;101627.19;;;8.99;100.00
70546;BME280;58098;51.680;5.134;2023-04-29T02:15:47;101624.03;;;8.94;100.00
70546;BME280;58098;51.680;5.134;2023-04-29T02:18:13;101614.81;;;8.89;100.00
70546;BME280;58098;51.680;5.134;2023-04-29T02:20:38;101624.69;;;8.98;100.00
70546;BME280;58098;51.680;5.134;2023-04-29T02:23:03;101638.47;;;9.00;100.00
70546;BME280;58098;51.680;5.134;2023-04-29T02:25:29;101631.56;;;8.85;100.00
70546;BME280;58098;51.680;5.134;2023-04-29T02:27:54;101620.47;;;8.81;100.00
70546;BME280;58098;51.680;5.134;2023-04-29T02:30:20;101621.88;;;8.87;100.00
70546;BME280;58098;51.680;5.134;2023-04-29T02:32:45;101629.28;;;8.79;100.00
70546;BME280;58098;51.680;5.134;2023-04-29T02:35:10;101641.97;;;8.85;100.00
70546;BME280;58098;51.680;5.134;2023-04-29T02:37:36;101637.09;;;8.79;100.00
70546;BME280;58098;51.680;5.134;2023-04-29T02:40:02;101642.88;;;8.84;100.00
70546;BME280;58098;51.680;5.134;2023-04-29T02:42:27;101644.72;;;8.82;100.00
70546;BME280;58098;51.680;5.134;2023-04-29T02:44:53;101654.56;;;8.77;100.00
70546;BME280;58098;51.680;5.134;2023-04-29T02:47:18;101659.88;;;8.75;100.00
70546;BME280;58098;51.680;5.134;2023-04-29T02:49:44;101657.38;;;8.74;100.00
70546;BME280;58098;51.680;5.134;2023-04-29T02:52:09;101655.13;;;8.68;100.00
70546;BME280;58098;51.680;5.134;2023-04-29T02:54:34;101659.56;;;8.66;100.00
70546;BME280;58098;51.680;5.134;2023-04-29T02:57:00;101677.50;;;8.70;100.00
70546;BME280;58098;51.680;5.134;2023-04-29T02:59:25;101667.13;;;8.70;100.00
70546;BME280;58098;51.680;5.134;2023-04-29T03:01:51;101669.44;;;8.75;100.00
70546;BME280;58098;51.680;5.134;2023-04-29T03:04:18;101691.94;;;8.76;100.00
70546;BME280;58098;51.680;5.134;2023-04-29T03:06:44;101686.44;;;8.66;100.00
70546;BME280;58098;51.680;5.134;2023-04-29T03:09:10;101685.94;;;8.59;100.00
70546;BME280;58098;51.680;5.134;2023-04-29T03:11:36;101692.81;;;8.60;100.00
70546;BME280;58098;51.680;5.134;2023-04-29T03:14:02;101684.59;;;8.52;100.00
70546;BME280;58098;51.680;5.134;2023-04-29T03:16:27;101684.34;;;8.57;100.00
70546;BME280;58098;51.680;5.134;2023-04-29T03:18:53;101692.44;;;8.67;100.00
70546;BME280;58098;51.680;5.134;2023-04-29T03:21:18;101677.03;;;8.63;100.00
70546;BME280;58098;51.680;5.134;2023-04-29T03:23:43;101688.78;;;8.71;100.00
70546;BME280;58098;51.680;5.134;2023-04-29T03:26:09;101694.13;;;8.68;100.00
70546;BME280;58098;51.680;5.134;2023-04-29T03:28:34;101689.47;;;8.58;100.00
70546;BME280;58098;51.680;5.134;2023-04-29T03:30:59;101688.03;;;8.53;100.00
70546;BME280;58098;51.680;5.134;2023-04-29T03:33:25;101694.69;;;8.58;100.00
70546;BME280;58098;51.680;5.134;2023-04-29T03:35:50;101701.19;;;8.66;100.00
70546;BME280;58098;51.680;5.134;2023-04-29T03:38:16;101696.25;;;8.61;100.00
70546;BME280;58098;51.680;5.134;2023-04-29T03:40:41;101702.69;;;8.70;100.00
70546;BME280;58098;51.680;5.134;2023-04-29T03:43:06;101697.91;;;8.62;100.00
70546;BME280;58098;51.680;5.134;2023-04-29T03:45:33;101689.63;;;8.55;100.00
70546;BME280;58098;51.680;5.134;2023-04-29T03:47:58;101696.16;;;8.62;100.00
70546;BME280;58098;51.680;5.134;2023-04-29T03:50:24;101693.50;;;8.48;100.00
70546;BME280;58098;51.680;5.134;2023-04-29T03:52:50;101706.09;;;8.56;100.00
70546;BME280;58098;51.680;5.134;2023-04-29T03:55:15;101714.53;;;8.59;100.00
70546;BME280;58098;51.680;5.134;2023-04-29T03:57:41;101700.72;;;8.59;100.00
70546;BME280;58098;51.680;5.134;2023-04-29T04:00:07;101713.25;;;8.67;100.00
70546;BME280;58098;51.680;5.134;2023-04-29T04:02:33;101700.47;;;8.63;100.00
70546;BME280;58098;51.680;5.134;2023-04-29T04:04:59;101719.16;;;8.70;100.00
70546;BME280;58098;51.680;5.134;2023-04-29T04:07:24;101715.13;;;8.64;100.00
70546;BME280;58098;51.680;5.134;2023-04-29T04:09:49;101701.72;;;8.56;100.00
70546;BME280;58098;51.680;5.134;2023-04-29T04:12:15;101723.63;;;8.52;100.00
70546;BME280;58098;51.680;5.134;2023-04-29T04:14:40;101710.78;;;8.49;100.00
70546;BME280;58098;51.680;5.134;2023-04-29T04:17:06;101728.28;;;8.61;100.00
70546;BME280;58098;51.680;5.134;2023-04-29T04:19:31;101724.69;;;8.64;100.00
70546;BME280;58098;51.680;5.134;2023-04-29T04:21:57;101725.19;;;8.71;100.00
70546;BME280;58098;51.680;5.134;2023-04-29T04:24:23;101734.19;;;8.65;100.00
70546;BME280;58098;51.680;5.134;2023-04-29T04:26:48;101734.34;;;8.62;100.00
70546;BME280;58098;51.680;5.134;2023-04-29T04:29:13;101742.81;;;8.66;100.00
70546;BME280;58098;51.680;5.134;2023-04-29T04:31:39;101744.47;;;8.67;100.00
70546;BME280;58098;51.680;5.134;2023-04-29T04:34:04;101745.44;;;8.66;100.00
70546;BME280;58098;51.680;5.134;2023-04-29T04:36:30;101741.13;;;8.64;100.00
70546;BME280;58098;51.680;5.134;2023-04-29T04:38:57;101739.47;;;8.63;100.00
70546;BME280;58098;51.680;5.134;2023-04-29T04:41:22;101744.31;;;8.70;100.00
70546;BME280;58098;51.680;5.134;2023-04-29T04:43:47;101757.06;;;8.74;100.00
70546;BME280;58098;51.680;5.134;2023-04-29T04:46:14;101745.59;;;8.62;100.00
70546;BME280;58098;51.680;5.134;2023-04-29T04:48:41;101767.84;;;8.68;100.00
70546;BME280;58098;51.680;5.134;2023-04-29T04:51:10;101762.09;;;8.61;100.00
70546;BME280;58098;51.680;5.134;2023-04-29T04:53:37;101774.78;;;8.68;100.00
70546;BME280;58098;51.680;5.134;2023-04-29T04:56:03;101791.16;;;8.70;100.00
70546;BME280;58098;51.680;5.134;2023-04-29T04:58:29;101764.47;;;8.66;100.00
70546;BME280;58098;51.680;5.134;2023-04-29T05:00:56;101788.22;;;8.76;100.00
70546;BME280;58098;51.680;5.134;2023-04-29T05:03:21;101794.16;;;8.78;100.00
70546;BME280;58098;51.680;5.134;2023-04-29T05:05:52;101792.69;;;8.74;100.00
70546;BME280;58098;51.680;5.134;2023-04-29T05:08:18;101795.69;;;8.66;100.00
70546;BME280;58098;51.680;5.134;2023-04-29T05:10:43;101801.91;;;8.63;100.00
70546;BME280;58098;51.680;5.134;2023-04-29T05:13:09;101798.72;;;8.58;100.00
70546;BME280;58098;51.680;5.134;2023-04-29T05:15:34;101803.72;;;8.61;100.00
70546;BME280;58098;51.680;5.134;2023-04-29T05:17:59;101812.66;;;8.73;100.00
70546;BME280;58098;51.680;5.134;2023-04-29T05:20:25;101808.03;;;8.78;100.00
70546;BME280;58098;51.680;5.134;2023-04-29T05:22:51;101817.31;;;8.82;100.00
70546;BME280;58098;51.680;5.134;2023-04-29T05:25:16;101816.47;;;8.82;100.00
70546;BME280;58098;51.680;5.134;2023-04-29T05:27:42;101809.94;;;8.75;100.00
70546;BME280;58098;51.680;5.134;2023-04-29T05:30:07;101810.09;;;8.72;100.00
70546;BME280;58098;51.680;5.134;2023-04-29T05:32:33;101823.31;;;8.69;100.00
70546;BME280;58098;51.680;5.134;2023-04-29T05:34:58;101829.25;;;8.71;100.00
70546;BME280;58098;51.680;5.134;2023-04-29T05:37:23;101826.31;;;8.77;100.00
70546;BME280;58098;51.680;5.134;2023-04-29T05:39:54;101835.66;;;8.81;100.00
70546;BME280;58098;51.680;5.134;2023-04-29T05:42:20;101834.69;;;8.82;100.00
70546;BME280;58098;51.680;5.134;2023-04-29T05:44:45;101843.25;;;8.84;100.00
70546;BME280;58098;51.680;5.134;2023-04-29T05:47:11;101837.47;;;8.79;100.00
70546;BME280;58098;51.680;5.134;2023-04-29T05:49:36;101843.44;;;8.81;100.00
70546;BME280;58098;51.680;5.134;2023-04-29T05:52:01;101833.94;;;8.80;100.00
70546;BME280;58098;51.680;5.134;2023-04-29T05:54:30;101852.75;;;8.85;100.00
70546;BME280;58098;51.680;5.134;2023-04-29T05:56:56;101852.50;;;8.89;100.00
70546;BME280;58098;51.680;5.134;2023-04-29T05:59:21;101841.25;;;8.89;100.00
70546;BME280;58098;51.680;5.134;2023-04-29T06:01:47;101848.88;;;8.92;100.00
70546;BME280;58098;51.680;5.134;2023-04-29T06:04:12;101856.94;;;9.03;100.00
70546;BME280;58098;51.680;5.134;2023-04-29T06:06:37;101861.38;;;9.01;100.00
70546;BME280;58098;51.680;5.134;2023-04-29T06:09:03;101862.16;;;9.03;100.00
70546;BME280;58098;51.680;5.134;2023-04-29T06:11:29;101863.81;;;9.04;100.00
70546;BME280;58098;51.680;5.134;2023-04-29T06:13:54;101860.88;;;9.10;100.00
70546;BME280;58098;51.680;5.134;2023-04-29T06:16:19;101856.16;;;9.16;100.00
70546;BME280;58098;51.680;5.134;2023-04-29T06:18:45;101865.47;;;9.20;100.00
70546;BME280;58098;51.680;5.134;2023-04-29T06:21:10;101888.13;;;9.34;100.00
70546;BME280;58098;51.680;5.134;2023-04-29T06:23:36;101883.94;;;9.32;100.00
70546;BME280;58098;51.680;5.134;2023-04-29T06:26:01;101889.97;;;9.32;100.00
70546;BME280;58098;51.680;5.134;2023-04-29T06:28:26;101886.81;;;9.27;100.00
70546;BME280;58098;51.680;5.134;2023-04-29T06:30:52;101884.44;;;9.22;100.00
70546;BME280;58098;51.680;5.134;2023-04-29T06:33:18;101891.00;;;9.29;100.00
70546;BME280;58098;51.680;5.134;2023-04-29T06:35:43;101900.22;;;9.35;100.00
70546;BME280;58098;51.680;5.134;2023-04-29T06:38:08;101903.06;;;9.46;100.00
70546;BME280;58098;51.680;5.134;2023-04-29T06:40:34;101882.56;;;9.40;100.00
70546;BME280;58098;51.680;5.134;2023-04-29T06:42:59;101913.81;;;9.56;100.00
70546;BME280;58098;51.680;5.134;2023-04-29T06:45:26;101903.97;;;9.45;100.00
70546;BME280;58098;51.680;5.134;2023-04-29T06:47:52;101909.19;;;9.45;100.00
70546;BME280;58098;51.680;5.134;2023-04-29T06:50:17;101924.88;;;9.59;100.00
70546;BME280;58098;51.680;5.134;2023-04-29T06:52:43;101941.19;;;9.63;100.00
70546;BME280;58098;51.680;5.134;2023-04-29T06:55:08;101936.44;;;9.69;100.00
70546;BME280;58098;51.680;5.134;2023-04-29T06:57:35;101932.47;;;9.78;100.00
70546;BME280;58098;51.680;5.134;2023-04-29T07:00:01;101947.31;;;9.91;100.00
70546;BME280;58098;51.680;5.134;2023-04-29T07:02:26;101951.97;;;10.01;100.00
70546;BME280;58098;51.680;5.134;2023-04-29T07:04:52;101945.16;;;9.98;100.00
70546;BME280;58098;51.680;5.134;2023-04-29T07:07:17;101963.19;;;10.03;100.00
70546;BME280;58098;51.680;5.134;2023-04-29T07:09:43;101956.00;;;10.06;100.00
70546;BME280;58098;51.680;5.134;2023-04-29T07:12:08;101963.41;;;10.14;100.00
70546;BME280;58098;51.680;5.134;2023-04-29T07:14:33;101957.03;;;10.04;100.00
70546;BME280;58098;51.680;5.134;2023-04-29T07:17:01;101957.44;;;10.12;100.00
70546;BME280;58098;51.680;5.134;2023-04-29T07:19:26;101969.78;;;10.38;100.00
70546;BME280;58098;51.680;5.134;2023-04-29T07:21:52;101969.78;;;10.52;100.00
70546;BME280;58098;51.680;5.134;2023-04-29T07:24:17;101972.59;;;10.63;100.00
70546;BME280;58098;51.680;5.134;2023-04-29T07:26:43;101963.25;;;10.59;100.00
70546;BME280;58098;51.680;5.134;2023-04-29T07:29:10;101972.66;;;10.61;100.00
70546;BME280;58098;51.680;5.134;2023-04-29T07:31:36;101979.66;;;10.61;100.00
70546;BME280;58098;51.680;5.134;2023-04-29T07:34:01;101985.63;;;10.77;100.00
70546;BME280;58098;51.680;5.134;2023-04-29T07:36:26;101976.56;;;10.97;100.00
70546;BME280;58098;51.680;5.134;2023-04-29T07:38:53;101971.06;;;11.01;100.00
70546;BME280;58098;51.680;5.134;2023-04-29T07:41:18;101980.09;;;10.96;100.00
70546;BME280;58098;51.680;5.134;2023-04-29T07:43:43;101984.13;;;11.01;100.00
70546;BME280;58098;51.680;5.134;2023-04-29T07:46:09;101982.13;;;11.05;100.00
70546;BME280;58098;51.680;5.134;2023-04-29T07:48:38;101982.63;;;10.97;100.00
70546;BME280;58098;51.680;5.134;2023-04-29T07:51:04;101999.97;;;10.98;100.00
70546;BME280;58098;51.680;5.134;2023-04-29T07:53:30;101987.88;;;10.69;100.00
70546;BME280;58098;51.680;5.134;2023-04-29T07:55:55;101982.91;;;10.79;100.00
70546;BME280;58098;51.680;5.134;2023-04-29T07:58:21;102003.53;;;10.97;100.00
70546;BME280;58098;51.680;5.134;2023-04-29T08:00:46;101999.03;;;11.13;100.00
70546;BME280;58098;51.680;5.134;2023-04-29T08:03:11;102006.22;;;11.37;100.00
70546;BME280;58098;51.680;5.134;2023-04-29T08:05:37;102008.22;;;11.60;100.00
70546;BME280;58098;51.680;5.134;2023-04-29T08:08:03;101990.84;;;11.59;100.00
70546;BME280;58098;51.680;5.134;2023-04-29T08:10:28;101997.78;;;11.60;100.00
70546;BME280;58098;51.680;5.134;2023-04-29T08:12:53;102013.53;;;11.72;100.00
70546;BME280;58098;51.680;5.134;2023-04-29T08:15:19;101999.06;;;11.67;100.00
70546;BME280;58098;51.680;5.134;2023-04-29T08:17:44;102009.50;;;11.93;100.00
70546;BME280;58098;51.680;5.134;2023-04-29T08:20:10;102012.16;;;12.06;100.00
70546;BME280;58098;51.680;5.134;2023-04-29T08:22:35;102005.69;;;12.24;100.00
70546;BME280;58098;51.680;5.134;2023-04-29T08:25:02;102019.09;;;12.32;100.00
70546;BME280;58098;51.680;5.134;2023-04-29T08:27:29;102006.66;;;12.23;100.00
70546;BME280;58098;51.680;5.134;2023-04-29T08:29:54;102014.41;;;12.37;100.00
70546;BME280;58098;51.680;5.134;2023-04-29T08:32:20;102015.84;;;12.41;100.00
70546;BME280;58098;51.680;5.134;2023-04-29T08:34:46;102023.50;;;12.32;100.00
70546;BME280;58098;51.680;5.134;2023-04-29T08:37:11;102030.63;;;12.30;100.00
70546;BME280;58098;51.680;5.134;2023-04-29T08:39:36;102033.38;;;12.41;100.00
70546;BME280;58098;51.680;5.134;2023-04-29T08:42:08;102027.59;;;12.48;100.00
70546;BME280;58098;51.680;5.134;2023-04-29T08:44:35;102035.44;;;12.48;100.00
70546;BME280;58098;51.680;5.134;2023-04-29T08:47:01;102047.09;;;12.57;100.00
70546;BME280;58098;51.680;5.134;2023-04-29T08:49:29;102026.34;;;12.67;100.00
70546;BME280;58098;51.680;5.134;2023-04-29T08:51:57;102041.75;;;12.58;100.00
70546;BME280;58098;51.680;5.134;2023-04-29T08:54:22;102037.13;;;12.49;100.00
70546;BME280;58098;51.680;5.134;2023-04-29T08:56:50;102041.94;;;12.81;100.00
70546;BME280;58098;51.680;5.134;2023-04-29T08:59:16;102033.97;;;12.95;100.00
70546;BME280;58098;51.680;5.134;2023-04-29T09:01:43;102033.13;;;13.07;100.00
70546;BME280;58098;51.680;5.134;2023-04-29T09:06:34;102035.16;;;13.40;100.00
70546;BME280;58098;51.680;5.134;2023-04-29T09:09:00;102032.59;;;13.51;100.00
70546;BME280;58098;51.680;5.134;2023-04-29T09:11:28;102046.47;;;13.53;100.00
70546;BME280;58098;51.680;5.134;2023-04-29T09:13:59;102036.75;;;13.66;100.00
70546;BME280;58098;51.680;5.134;2023-04-29T09:16:25;102049.09;;;13.76;100.00
70546;BME280;58098;51.680;5.134;2023-04-29T09:18:51;102040.75;;;13.82;100.00
70546;BME280;58098;51.680;5.134;2023-04-29T09:21:20;102049.03;;;13.89;100.00
70546;BME280;58098;51.680;5.134;2023-04-29T09:23:47;102054.03;;;13.92;100.00
70546;BME280;58098;51.680;5.134;2023-04-29T09:26:13;102041.25;;;13.87;100.00
70546;BME280;58098;51.680;5.134;2023-04-29T09:28:39;102066.00;;;13.96;100.00
70546;BME280;58098;51.680;5.134;2023-04-29T09:31:08;102062.75;;;14.16;100.00
70546;BME280;58098;51.680;5.134;2023-04-29T09:34:02;102066.44;;;14.14;100.00
70546;BME280;58098;51.680;5.134;2023-04-29T09:36:47;102071.94;;;14.22;100.00
70546;BME280;58098;51.680;5.134;2023-04-29T09:39:18;102053.31;;;14.14;100.00
70546;BME280;58098;51.680;5.134;2023-04-29T09:44:15;102057.22;;;14.32;100.00
70546;BME280;58098;51.680;5.134;2023-04-29T09:46:40;102067.53;;;14.22;100.00
70546;BME280;58098;51.680;5.134;2023-04-29T09:49:21;102069.47;;;14.55;100.00
70546;BME280;58098;51.680;5.134;2023-04-29T09:51:57;102069.81;;;14.62;100.00
70546;BME280;58098;51.680;5.134;2023-04-29T09:54:25;102076.28;;;14.69;100.00
70546;BME280;58098;51.680;5.134;2023-04-29T09:56:52;102077.59;;;14.74;100.00
70546;BME280;58098;51.680;5.134;2023-04-29T09:59:18;102083.09;;;14.82;100.00
70546;BME280;58098;51.680;5.134;2023-04-29T10:01:49;102089.09;;;14.95;100.00
70546;BME280;58098;51.680;5.134;2023-04-29T10:04:16;102096.63;;;15.00;100.00
70546;BME280;58098;51.680;5.134;2023-04-29T10:06:43;102088.69;;;14.67;100.00
70546;BME280;58098;51.680;5.134;2023-04-29T10:09:12;102068.72;;;14.53;100.00
70546;BME280;58098;51.680;5.134;2023-04-29T10:11:40;102091.13;;;14.46;100.00
70546;BME280;58098;51.680;5.134;2023-04-29T10:14:06;102089.59;;;14.20;100.00
70546;BME280;58098;51.680;5.134;2023-04-29T10:16:39;102096.66;;;14.43;100.00
70546;BME280;58098;51.680;5.134;2023-04-29T10:19:11;102104.09;;;14.60;100.00
70546;BME280;58098;51.680;5.134;2023-04-29T10:21:36;102093.59;;;14.60;100.00
70546;BME280;58098;51.680;5.134;2023-04-29T10:24:02;102098.00;;;14.71;100.00
70546;BME280;58098;51.680;5.134;2023-04-29T10:26:29;102101.38;;;14.95;100.00
70546;BME280;58098;51.680;5.134;2023-04-29T10:28:55;102091.25;;;15.35;100.00
70546;BME280;58098;51.680;5.134;2023-04-29T10:31:21;102111.09;;;15.28;100.00
70546;BME280;58098;51.680;5.134;2023-04-29T10:33:47;102113.72;;;15.28;100.00
70546;BME280;58098;51.680;5.134;2023-04-29T10:36:14;102102.34;;;15.27;100.00
70546;BME280;58098;51.680;5.134;2023-04-29T10:38:42;102112.28;;;15.46;100.00
70546;BME280;58098;51.680;5.134;2023-04-29T10:41:19;102113.56;;;15.62;100.00
70546;BME280;58098;51.680;5.134;2023-04-29T10:43:45;102105.53;;;15.75;100.00
70546;BME280;58098;51.680;5.134;2023-04-29T10:46:24;102109.59;;;15.90;100.00
70546;BME280;58098;51.680;5.134;2023-04-29T10:48:59;102111.31;;;15.69;100.00
70546;BME280;58098;51.680;5.134;2023-04-29T10:51:34;102115.41;;;15.62;100.00
70546;BME280;58098;51.680;5.134;2023-04-29T10:54:16;102108.22;;;15.64;100.00
70546;BME280;58098;51.680;5.134;2023-04-29T10:56:51;102111.97;;;15.82;100.00
70546;BME280;58098;51.680;5.134;2023-04-29T10:59:22;102115.91;;;15.99;100.00
70546;BME280;58098;51.680;5.134;2023-04-29T11:02:05;102105.84;;;16.56;100.00
70546;BME280;58098;51.680;5.134;2023-04-29T11:04:30;102095.03;;;16.80;100.00
70546;BME280;58098;51.680;5.134;2023-04-29T11:06:57;102111.53;;;16.52;100.00
70546;BME280;58098;51.680;5.134;2023-04-29T11:09:24;102121.91;;;16.53;100.00
70546;BME280;58098;51.680;5.134;2023-04-29T11:12:00;102120.66;;;16.36;100.00
70546;BME280;58098;51.680;5.134;2023-04-29T11:16:58;102114.63;;;16.25;100.00
70546;BME280;58098;51.680;5.134;2023-04-29T11:19:27;102117.16;;;16.15;100.00
70546;BME280;58098;51.680;5.134;2023-04-29T11:27:23;102106.47;;;16.90;100.00
70546;BME280;58098;51.680;5.134;2023-04-29T11:29:51;102101.50;;;17.27;100.00
70546;BME280;58098;51.680;5.134;2023-04-29T11:32:20;102107.09;;;17.33;100.00
70546;BME280;58098;51.680;5.134;2023-04-29T11:34:47;102100.09;;;17.13;100.00
70546;BME280;58098;51.680;5.134;2023-04-29T11:37:18;102101.47;;;16.87;100.00
70546;BME280;58098;51.680;5.134;2023-04-29T11:39:44;102099.22;;;16.82;100.00
70546;BME280;58098;51.680;5.134;2023-04-29T11:42:09;102103.19;;;16.97;100.00
70546;BME280;58098;51.680;5.134;2023-04-29T11:44:35;102108.84;;;17.23;100.00
70546;BME280;58098;51.680;5.134;2023-04-29T11:47:02;102112.28;;;17.44;100.00
70546;BME280;58098;51.680;5.134;2023-04-29T11:49:32;102115.81;;;17.54;100.00
70546;BME280;58098;51.680;5.134;2023-04-29T11:51:58;102118.56;;;17.53;100.00
70546;BME280;58098;51.680;5.134;2023-04-29T11:54:28;102120.16;;;17.74;100.00
70546;BME280;58098;51.680;5.134;2023-04-29T11:56:54;102117.41;;;17.76;100.00
70546;BME280;58098;51.680;5.134;2023-04-29T11:59:20;102118.53;;;17.93;100.00
70546;BME280;58098;51.680;5.134;2023-04-29T12:01:47;102108.38;;;18.17;100.00
70546;BME280;58098;51.680;5.134;2023-04-29T12:04:13;102110.34;;;18.34;100.00
70546;BME280;58098;51.680;5.134;2023-04-29T12:06:39;102115.78;;;18.32;100.00
70546;BME280;58098;51.680;5.134;2023-04-29T12:09:05;102112.16;;;18.53;100.00
70546;BME280;58098;51.680;5.134;2023-04-29T12:11:31;102115.03;;;18.40;100.00
70546;BME280;58098;51.680;5.134;2023-04-29T12:13:56;102095.03;;;18.28;100.00
70546;BME280;58098;51.680;5.134;2023-04-29T12:16:22;102115.47;;;18.26;100.00
70546;BME280;58098;51.680;5.134;2023-04-29T12:18:50;102113.50;;;17.80;100.00
70546;BME280;58098;51.680;5.134;2023-04-29T12:21:16;102096.56;;;18.02;100.00
70546;BME280;58098;51.680;5.134;2023-04-29T12:23:41;102113.13;;;18.61;100.00
70546;BME280;58098;51.680;5.134;2023-04-29T12:26:07;102112.88;;;19.38;100.00
70546;BME280;58098;51.680;5.134;2023-04-29T12:28:33;102104.25;;;20.25;100.00
70546;BME280;58098;51.680;5.134;2023-04-29T12:30:59;102111.72;;;20.30;100.00
70546;BME280;58098;51.680;5.134;2023-04-29T12:33:27;102111.13;;;20.54;100.00
70546;BME280;58098;51.680;5.134;2023-04-29T12:35:54;102108.97;;;21.34;100.00
70546;BME280;58098;51.680;5.134;2023-04-29T12:38:25;102098.69;;;20.80;100.00
70546;BME280;58098;51.680;5.134;2023-04-29T12:40:55;102116.31;;;20.10;100.00
70546;BME280;58098;51.680;5.134;2023-04-29T12:43:31;102119.88;;;19.66;100.00
70546;BME280;58098;51.680;5.134;2023-04-29T12:46:01;102134.34;;;19.35;100.00
70546;BME280;58098;51.680;5.134;2023-04-29T12:48:35;102117.59;;;19.07;100.00
70546;BME280;58098;51.680;5.134;2023-04-29T12:51:03;102143.69;;;18.92;100.00
70546;BME280;58098;51.680;5.134;2023-04-29T12:53:29;102115.84;;;18.79;100.00
70546;BME280;58098;51.680;5.134;2023-04-29T12:55:55;102129.41;;;18.57;100.00
70546;BME280;58098;51.680;5.134;2023-04-29T12:58:20;102128.69;;;18.64;100.00
70546;BME280;58098;51.680;5.134;2023-04-29T13:00:46;102138.53;;;19.28;100.00
70546;BME280;58098;51.680;5.134;2023-04-29T13:03:11;102123.47;;;20.10;100.00
70546;BME280;58098;51.680;5.134;2023-04-29T13:05:37;102124.75;;;20.59;100.00
70546;BME280;58098;51.680;5.134;2023-04-29T13:08:02;102114.22;;;20.49;100.00
70546;BME280;58098;51.680;5.134;2023-04-29T13:10:31;102121.75;;;20.36;100.00